createdAt,value
2023-01-19T00:01:50.068Z,85.94
2023-01-19T00:04:18.902Z,84.43
2023-01-19T00:06:48.704Z,82.85
2023-01-19T00:09:17.111Z,87.33
2023-01-19T00:11:45.523Z,84.83
2023-01-19T00:14:13.936Z,85.00
2023-01-19T00:16:42.353Z,86.00
2023-01-19T00:19:11.563Z,83.33
2023-01-19T00:21:40.015Z,84.81
2023-01-19T00:24:11.298Z,84.88
2023-01-19T00:26:40.521Z,83.60
2023-01-19T00:29:08.989Z,83.17
2023-01-19T00:31:38.041Z,84.27
2023-01-19T00:34:07.740Z,82.59
2023-01-19T00:36:36.473Z,82.94
2023-01-19T00:39:05.552Z,85.00
2023-01-19T00:41:52.997Z,84.67
2023-01-19T00:44:21.396Z,83.01
2023-01-19T00:46:49.814Z,82.07
2023-01-19T00:49:18.666Z,84.47
2023-01-19T00:51:47.094Z,82.97
2023-01-19T00:54:15.575Z,85.39
2023-01-19T00:56:45.385Z,82.13
2023-01-19T00:59:14.327Z,85.22
2023-01-19T01:01:45.446Z,83.04
2023-01-19T01:04:14.727Z,82.15
2023-01-19T01:06:43.189Z,82.43
2023-01-19T01:09:13.145Z,83.91
2023-01-19T01:11:42.625Z,81.65
2023-01-19T01:14:14.063Z,84.36
2023-01-19T01:16:42.868Z,83.80
2023-01-19T01:19:11.410Z,83.88
2023-01-19T01:21:40.531Z,82.19
2023-01-19T01:24:10.524Z,81.73
2023-01-19T01:26:39.589Z,85.63
2023-01-19T01:29:08.744Z,82.93
2023-01-19T01:31:38.728Z,82.73
2023-01-19T01:34:07.453Z,84.88
2023-01-19T01:36:36.174Z,84.28
2023-01-19T01:39:06.245Z,83.63
2023-01-19T01:41:35.073Z,84.28
2023-01-19T01:44:08.281Z,80.71
2023-01-19T01:46:38.513Z,84.45
2023-01-19T01:49:12.212Z,85.75
2023-01-19T01:51:45.064Z,84.27
2023-01-19T01:54:20.884Z,82.53
2023-01-19T01:56:51.675Z,83.55
2023-01-19T01:59:27.040Z,83.14
2023-01-19T02:02:16.913Z,84.40
2023-01-19T02:04:53.086Z,85.46
2023-01-19T02:07:53.832Z,81.58
2023-01-19T02:10:40.377Z,81.36
2023-01-19T02:13:21.625Z,82.60
2023-01-19T02:15:52.726Z,82.75
2023-01-19T02:18:25.157Z,82.19
2023-01-19T02:21:05.741Z,81.62
2023-01-19T02:23:45.460Z,82.96
2023-01-19T02:26:17.134Z,82.19
2023-01-19T02:28:51.383Z,80.32
2023-01-19T02:31:20.351Z,81.54
2023-01-19T02:33:48.849Z,83.18
2023-01-19T02:36:21.846Z,85.11
2023-01-19T02:38:56.217Z,82.08
2023-01-19T02:41:29.844Z,81.30
2023-01-19T02:43:59.893Z,82.68
2023-01-19T02:46:28.693Z,85.36
2023-01-19T02:49:01.784Z,82.20
2023-01-19T02:51:30.476Z,81.64
2023-01-19T02:54:19.048Z,80.81
2023-01-19T02:57:15.025Z,80.78
2023-01-19T03:00:01.040Z,82.92
2023-01-19T03:02:38.134Z,84.26
2023-01-19T03:05:27.996Z,81.81
2023-01-19T03:08:08.947Z,81.76
2023-01-19T03:10:48.547Z,81.54
2023-01-19T03:13:24.069Z,83.48
2023-01-19T03:15:58.042Z,82.10
2023-01-19T03:18:30.266Z,82.70
2023-01-19T03:21:03.578Z,85.27
2023-01-19T03:23:33.991Z,83.98
2023-01-19T03:26:06.118Z,81.37
2023-01-19T03:28:37.300Z,81.27
2023-01-19T03:31:11.944Z,85.05
2023-01-19T03:33:45.198Z,82.38
2023-01-19T03:36:20.338Z,83.27
2023-01-19T03:38:51.261Z,83.32
2023-01-19T03:41:24.365Z,82.16
2023-01-19T03:43:55.345Z,83.04
2023-01-19T03:46:25.233Z,84.03
2023-01-19T03:48:54.985Z,84.44
2023-01-19T03:51:23.941Z,85.05
2023-01-19T03:53:52.424Z,82.55
2023-01-19T03:56:25.074Z,83.86
2023-01-19T03:58:55.547Z,83.69
2023-01-19T04:01:25.431Z,83.27
2023-01-19T04:03:54.813Z,83.70
2023-01-19T04:06:23.526Z,82.82
2023-01-19T04:08:52.934Z,81.74
2023-01-19T04:11:22.836Z,83.13
2023-01-19T04:13:51.929Z,82.86
2023-01-19T04:16:21.588Z,81.46
2023-01-19T04:18:50.863Z,80.88
2023-01-19T04:21:20.344Z,82.61
2023-01-19T04:23:50.138Z,84.29
2023-01-19T04:26:18.654Z,82.24
2023-01-19T04:28:48.509Z,82.33
2023-01-19T04:31:17.372Z,83.96
2023-01-19T04:33:46.163Z,81.51
2023-01-19T04:36:14.776Z,83.36
2023-01-19T04:38:43.200Z,84.69
2023-01-19T04:41:12.175Z,82.63
2023-01-19T04:43:40.931Z,82.02
2023-01-19T04:46:11.099Z,80.47
2023-01-19T04:48:41.264Z,84.87
2023-01-19T04:51:10.435Z,83.66
2023-01-19T04:53:38.866Z,81.61
2023-01-19T04:56:07.805Z,84.63
2023-01-19T04:58:36.738Z,84.82
2023-01-19T05:01:10.721Z,81.59
2023-01-19T05:03:40.302Z,81.73
2023-01-19T05:06:09.002Z,80.82
2023-01-19T05:08:37.598Z,81.09
2023-01-19T05:11:07.573Z,82.41
2023-01-19T05:13:36.184Z,84.73
2023-01-19T05:16:04.877Z,83.53
2023-01-19T05:18:37.252Z,81.66
2023-01-19T05:21:06.295Z,83.98
2023-01-19T05:23:35.164Z,82.35
2023-01-19T05:26:05.665Z,80.94
2023-01-19T05:28:35.541Z,84.31
2023-01-19T05:31:04.254Z,80.57
2023-01-19T05:33:34.475Z,80.54
2023-01-19T05:36:04.556Z,81.02
2023-01-19T05:38:35.643Z,81.49
2023-01-19T05:41:04.624Z,80.06
2023-01-19T05:43:33.310Z,80.72
2023-01-19T05:46:01.815Z,81.64
2023-01-19T05:48:30.237Z,82.80
2023-01-19T05:51:01.516Z,81.99
2023-01-19T05:53:30.368Z,80.01
2023-01-19T05:56:02.183Z,81.23
2023-01-19T05:58:31.007Z,82.34
2023-01-19T06:01:03.493Z,80.86
2023-01-19T06:03:32.238Z,80.50
2023-01-19T06:06:03.013Z,81.09
2023-01-19T06:08:31.877Z,79.88
2023-01-19T06:11:03.474Z,80.54
2023-01-19T06:13:31.909Z,81.76
2023-01-19T06:16:00.870Z,80.34
2023-01-19T06:18:30.137Z,79.84
2023-01-19T06:20:59.643Z,80.31
2023-01-19T06:23:33.342Z,80.96
2023-01-19T06:26:02.609Z,82.92
2023-01-19T06:28:31.359Z,83.40
2023-01-19T06:30:59.823Z,82.41
2023-01-19T06:33:28.926Z,82.13
2023-01-19T06:35:57.634Z,84.44
2023-01-19T06:38:26.455Z,86.19
2023-01-19T06:40:58.824Z,85.30
2023-01-19T06:43:28.141Z,82.22
2023-01-19T06:45:57.451Z,81.47
2023-01-19T06:48:26.223Z,81.84
2023-01-19T06:50:56.644Z,82.00
2023-01-19T06:53:28.114Z,80.33
2023-01-19T06:56:02.050Z,81.02
2023-01-19T06:58:32.464Z,81.84
2023-01-19T07:01:03.704Z,81.48
2023-01-19T07:03:33.151Z,81.61
2023-01-19T07:06:04.507Z,81.36
2023-01-19T07:08:33.077Z,81.07
2023-01-19T07:11:25.050Z,80.48
2023-01-19T07:13:56.287Z,81.04
2023-01-19T07:16:25.355Z,80.59
2023-01-19T07:18:53.934Z,81.57
2023-01-19T07:21:23.257Z,82.19
2023-01-19T07:23:53.669Z,82.13
2023-01-19T07:26:25.410Z,81.43
2023-01-19T07:28:53.912Z,81.49
2023-01-19T07:31:22.566Z,83.25
2023-01-19T07:33:51.181Z,82.68
2023-01-19T07:36:19.633Z,82.34
2023-01-19T07:38:48.062Z,81.84
2023-01-19T07:41:16.592Z,81.71
2023-01-19T07:43:46.399Z,82.82
2023-01-19T07:46:14.993Z,82.14
2023-01-19T07:48:44.450Z,82.75
2023-01-19T07:51:18.111Z,82.76
2023-01-19T07:53:47.148Z,82.80
2023-01-19T07:56:15.871Z,83.41
2023-01-19T07:58:46.547Z,83.61
2023-01-19T08:01:15.364Z,82.77
2023-01-19T08:03:43.838Z,82.78
2023-01-19T08:06:20.841Z,81.20
2023-01-19T08:08:49.803Z,82.31
2023-01-19T08:11:18.317Z,81.89
2023-01-19T08:13:48.149Z,82.96
2023-01-19T08:16:16.659Z,82.80
2023-01-19T08:18:45.474Z,83.06
2023-01-19T08:21:14.191Z,82.12
2023-01-19T08:23:42.896Z,81.77
2023-01-19T08:26:23.875Z,81.45
2023-01-19T08:28:53.721Z,81.62
2023-01-19T08:31:24.840Z,81.96
2023-01-19T08:33:53.823Z,82.06
2023-01-19T08:36:24.032Z,81.86
2023-01-19T08:38:52.881Z,81.42
2023-01-19T08:41:22.495Z,81.48
2023-01-19T08:43:51.235Z,81.78
2023-01-19T08:46:22.052Z,80.88
2023-01-19T08:48:51.139Z,81.03
2023-01-19T08:51:19.863Z,80.88
2023-01-19T08:53:48.687Z,82.46
2023-01-19T08:56:19.005Z,82.79
2023-01-19T08:58:59.477Z,82.85
2023-01-19T09:01:38.157Z,81.75
2023-01-19T09:04:07.247Z,80.69
2023-01-19T09:06:35.785Z,80.75
2023-01-19T09:09:04.987Z,81.13
2023-01-19T09:11:35.031Z,81.37
2023-01-19T09:14:05.818Z,82.29
2023-01-19T09:16:34.472Z,83.10
2023-01-19T09:19:04.329Z,82.75
2023-01-19T09:21:32.750Z,84.13
2023-01-19T09:24:01.171Z,83.83
2023-01-19T09:26:31.054Z,82.88
2023-01-19T09:31:50.843Z,82.53
2023-01-19T09:34:21.249Z,82.17
2023-01-19T09:36:49.608Z,83.66
2023-01-19T09:39:18.248Z,82.41
2023-01-19T09:41:53.191Z,81.79
2023-01-19T09:44:31.663Z,81.04
2023-01-19T09:47:01.561Z,82.03
2023-01-19T09:49:36.693Z,80.63
2023-01-19T09:52:05.991Z,80.94
2023-01-19T09:54:44.214Z,80.38
2023-01-19T09:57:14.596Z,80.82
2023-01-19T09:59:47.780Z,80.75
2023-01-19T10:02:35.390Z,83.19
2023-01-19T10:05:09.558Z,81.53
2023-01-19T10:07:54.650Z,81.02
2023-01-19T10:10:27.670Z,82.58
2023-01-19T10:13:21.361Z,82.72
2023-01-19T10:16:01.773Z,82.27
2023-01-19T10:18:47.541Z,83.14
2023-01-19T10:21:26.474Z,84.54
2023-01-19T10:23:59.986Z,84.75
2023-01-19T10:26:36.571Z,82.67
2023-01-19T10:29:11.939Z,83.04
2023-01-19T10:31:43.991Z,80.12
2023-01-19T10:34:20.967Z,79.79
2023-01-19T10:37:03.602Z,79.32
2023-01-19T10:39:34.866Z,77.51
2023-01-19T10:42:07.499Z,76.39
2023-01-19T10:44:38.538Z,74.19
2023-01-19T10:47:15.341Z,75.05
2023-01-19T10:49:43.952Z,77.22
2023-01-19T10:52:29.128Z,73.68
2023-01-19T10:54:59.348Z,74.69
2023-01-19T10:57:32.383Z,74.58
2023-01-19T11:00:01.139Z,74.15
2023-01-19T11:02:31.626Z,73.37
2023-01-19T11:05:03.037Z,73.18
2023-01-19T11:07:35.130Z,73.54
2023-01-19T11:10:24.912Z,74.89
2023-01-19T11:13:02.405Z,73.68
2023-01-19T11:15:35.975Z,73.49
2023-01-19T11:18:06.912Z,73.52
2023-01-19T11:20:49.703Z,73.31
2023-01-19T11:23:27.296Z,74.16
2023-01-19T11:26:00.601Z,74.25
2023-01-19T11:28:32.687Z,74.77
2023-01-19T11:31:03.479Z,73.61
2023-01-19T11:33:37.383Z,74.70
2023-01-19T11:36:17.849Z,73.73
2023-01-19T11:38:50.646Z,75.64
2023-01-19T11:41:22.570Z,73.17
2023-01-19T11:43:56.095Z,73.28
2023-01-19T11:46:28.087Z,74.82
2023-01-19T11:49:02.315Z,74.14
2023-01-19T11:51:37.141Z,75.22
2023-01-19T11:54:20.491Z,75.71
2023-01-19T11:56:52.222Z,75.70
2023-01-19T11:59:21.491Z,76.33
2023-01-19T12:01:56.903Z,75.20
2023-01-19T12:04:31.580Z,75.68
2023-01-19T12:07:07.201Z,74.78
2023-01-19T12:09:43.031Z,75.97
2023-01-19T12:12:22.283Z,74.92
2023-01-19T12:14:58.987Z,73.96
2023-01-19T12:17:30.976Z,74.72
2023-01-19T12:20:08.043Z,76.21
2023-01-19T12:22:51.042Z,74.79
2023-01-19T12:25:25.068Z,74.52
2023-01-19T12:27:54.770Z,74.29
2023-01-19T12:30:26.910Z,74.08
2023-01-19T12:33:39.001Z,75.11
2023-01-19T12:36:12.151Z,74.82
2023-01-19T12:38:49.033Z,72.66
2023-01-19T12:41:23.873Z,74.23
2023-01-19T12:44:25.667Z,73.53
2023-01-19T12:46:57.406Z,73.73
2023-01-19T12:49:30.046Z,74.29
2023-01-19T12:52:21.198Z,73.73
2023-01-19T12:55:02.350Z,76.18
2023-01-19T12:57:37.033Z,75.79
2023-01-19T13:00:35.083Z,76.57
2023-01-19T13:03:06.276Z,75.27
2023-01-19T13:05:58.930Z,77.25
2023-01-19T13:08:59.060Z,75.18
2023-01-19T13:11:32.047Z,76.40
2023-01-19T13:14:37.945Z,75.70
2023-01-19T13:17:33.749Z,77.02
2023-01-19T13:20:24.308Z,75.52
2023-01-19T13:23:23.249Z,77.02
2023-01-19T13:26:03.913Z,75.98
2023-01-19T13:28:40.555Z,76.21
2023-01-19T13:31:11.149Z,76.72
2023-01-19T13:33:49.353Z,76.79
2023-01-19T13:36:27.385Z,75.85
2023-01-19T13:38:58.196Z,75.99
2023-01-19T13:41:30.850Z,76.52
2023-01-19T13:44:04.086Z,75.09
2023-01-19T13:46:34.721Z,76.57
2023-01-19T13:49:11.402Z,76.53
2023-01-19T13:51:39.860Z,76.29
2023-01-19T13:54:17.847Z,76.99
2023-01-19T13:56:50.155Z,78.03
2023-01-19T13:59:18.898Z,77.89
2023-01-19T14:01:51.034Z,77.35
2023-01-19T14:04:31.381Z,78.19
2023-01-19T14:07:04.533Z,77.75
2023-01-19T14:09:33.371Z,78.36
2023-01-19T14:12:13.213Z,78.11
2023-01-19T14:14:42.921Z,79.66
2023-01-19T14:17:28.441Z,79.26
2023-01-19T14:19:59.417Z,79.53
2023-01-19T14:22:41.086Z,78.61
2023-01-19T14:25:31.159Z,78.53
2023-01-19T14:28:42.900Z,77.63
2023-01-19T14:31:23.041Z,78.84
2023-01-19T14:33:54.785Z,78.98
2023-01-19T14:36:36.411Z,79.60
2023-01-19T14:39:05.572Z,78.99
2023-01-19T14:41:47.949Z,79.06
2023-01-19T14:44:21.490Z,78.03
2023-01-19T14:46:50.805Z,78.30
2023-01-19T14:49:24.707Z,78.73
2023-01-19T14:51:53.774Z,79.37
2023-01-19T14:54:36.523Z,78.92
2023-01-19T14:57:05.442Z,78.93
2023-01-19T14:59:34.049Z,79.58
2023-01-19T15:02:02.602Z,79.26
2023-01-19T15:04:32.474Z,79.21
2023-01-19T15:07:00.936Z,79.34
2023-01-19T15:09:29.550Z,78.79
2023-01-19T15:11:58.324Z,78.80
2023-01-19T15:14:28.127Z,79.19
2023-01-19T15:16:56.618Z,79.31
2023-01-19T15:19:25.078Z,79.07
2023-01-19T15:21:54.908Z,79.25
2023-01-19T15:24:23.345Z,78.73
2023-01-19T15:26:51.793Z,78.03
2023-01-19T15:29:25.705Z,77.88
2023-01-19T15:31:54.839Z,78.46
2023-01-19T15:34:23.388Z,78.01
2023-01-19T15:36:51.825Z,77.66
2023-01-19T15:39:21.688Z,78.69
2023-01-19T15:41:50.168Z,79.46
2023-01-19T15:44:18.651Z,80.67
2023-01-19T15:46:47.124Z,79.56
2023-01-19T15:49:15.855Z,80.39
2023-01-19T15:51:44.291Z,80.36
2023-01-19T15:54:15.438Z,79.76
2023-01-19T15:56:45.374Z,79.27
2023-01-19T15:59:13.844Z,79.60
2023-01-19T16:01:42.654Z,78.61
2023-01-19T16:04:12.201Z,78.68
2023-01-19T16:06:40.872Z,79.64
2023-01-19T16:09:09.372Z,81.14
2023-01-19T16:11:38.821Z,80.41
2023-01-19T16:14:08.882Z,80.38
2023-01-19T16:16:37.622Z,81.18
2023-01-19T16:19:06.560Z,82.15
2023-01-19T16:21:35.029Z,80.41
2023-01-19T16:24:03.674Z,81.08
2023-01-19T16:26:34.501Z,81.45
2023-01-19T16:29:08.972Z,81.56
2023-01-19T16:31:39.726Z,81.89
2023-01-19T16:34:09.431Z,81.33
2023-01-19T16:36:40.414Z,81.06
2023-01-19T16:39:12.561Z,81.47
2023-01-19T16:41:41.884Z,81.68
2023-01-19T16:44:12.207Z,82.24
2023-01-19T16:46:44.124Z,81.82
2023-01-19T16:49:15.780Z,81.92
2023-01-19T16:51:44.681Z,82.23
2023-01-19T16:54:15.807Z,82.04
2023-01-19T16:56:44.834Z,82.04
2023-01-19T16:59:15.481Z,82.74
2023-01-19T17:01:46.202Z,83.28
2023-01-19T17:04:15.210Z,82.15
2023-01-19T17:06:43.754Z,82.33
2023-01-19T17:09:12.252Z,82.22
2023-01-19T17:11:41.403Z,82.10
2023-01-19T17:14:15.170Z,82.95
2023-01-19T17:16:45.369Z,82.73
2023-01-19T17:19:17.702Z,83.62
2023-01-19T17:21:48.640Z,83.82
2023-01-19T17:24:18.429Z,83.35
2023-01-19T17:26:48.691Z,82.68
2023-01-19T17:29:18.408Z,83.16
2023-01-19T17:31:51.066Z,83.57
2023-01-19T17:34:19.795Z,83.88
2023-01-19T17:36:48.666Z,84.29
2023-01-19T17:39:18.554Z,83.41
2023-01-19T17:41:49.448Z,82.87
2023-01-19T17:44:18.724Z,82.88
2023-01-19T17:46:48.650Z,84.26
2023-01-19T17:49:17.156Z,83.52
2023-01-19T17:51:45.841Z,83.23
2023-01-19T17:54:14.438Z,83.73
2023-01-19T17:56:42.878Z,83.48
2023-01-19T17:59:11.415Z,82.88
2023-01-19T18:01:40.841Z,82.50
2023-01-19T18:04:11.354Z,83.13
2023-01-19T18:06:40.363Z,83.15
2023-01-19T18:09:09.660Z,83.95
2023-01-19T18:11:38.148Z,83.34
2023-01-19T18:14:06.777Z,84.28
2023-01-19T18:16:36.198Z,84.16
2023-01-19T18:19:04.939Z,84.18
2023-01-19T18:21:34.725Z,83.17
2023-01-19T18:24:05.647Z,83.80
2023-01-19T18:26:36.433Z,83.58
2023-01-19T18:29:04.913Z,83.48
2023-01-19T18:31:33.903Z,83.34
2023-01-19T18:34:02.455Z,83.50
2023-01-19T18:36:32.909Z,83.85
2023-01-19T18:39:03.283Z,83.29
2023-01-19T18:41:32.045Z,84.23
2023-01-19T18:44:00.747Z,84.83
2023-01-19T18:46:29.538Z,84.48
2023-01-19T18:48:58.011Z,84.15
2023-01-19T18:51:26.514Z,83.88
2023-01-19T18:53:55.427Z,84.40
2023-01-19T18:56:25.908Z,84.56
2023-01-19T18:58:54.502Z,84.53
2023-01-19T19:01:26.480Z,84.37
2023-01-19T19:03:56.140Z,84.93
2023-01-19T19:06:27.171Z,84.19
2023-01-19T19:08:58.036Z,83.64
2023-01-19T19:11:30.243Z,84.05
2023-01-19T19:14:01.570Z,84.37
2023-01-19T19:16:32.154Z,84.35
2023-01-19T19:19:02.909Z,84.16
2023-01-19T19:21:31.447Z,84.82
2023-01-19T19:24:02.395Z,84.46
2023-01-19T19:26:32.202Z,84.68
2023-01-19T19:29:03.628Z,85.04
2023-01-19T19:31:32.528Z,84.73
2023-01-19T19:34:01.445Z,84.42
2023-01-19T19:36:30.738Z,85.09
2023-01-19T19:39:00.917Z,85.93
2023-01-19T19:41:32.519Z,86.04
2023-01-19T19:44:01.153Z,85.88
2023-01-19T19:46:29.806Z,84.88
2023-01-19T19:48:58.363Z,84.61
2023-01-19T19:51:28.841Z,83.93
2023-01-19T19:53:59.779Z,84.55
2023-01-19T19:56:32.665Z,84.06
2023-01-19T19:59:01.541Z,84.20
2023-01-19T20:01:33.420Z,84.11
2023-01-19T20:04:07.988Z,85.53
2023-01-19T20:06:39.784Z,84.51
2023-01-19T20:09:10.675Z,84.20
2023-01-19T20:11:41.159Z,85.25
2023-01-19T20:14:12.337Z,84.80
2023-01-19T20:16:40.947Z,83.99
2023-01-19T20:19:09.749Z,85.11
2023-01-19T20:21:41.786Z,86.27
2023-01-19T20:24:15.222Z,86.42
2023-01-19T20:26:48.392Z,84.77
2023-01-19T20:29:17.131Z,85.26
2023-01-19T20:31:48.735Z,85.39
2023-01-19T20:34:21.641Z,86.13
2023-01-19T20:36:53.174Z,86.21
2023-01-19T20:39:23.767Z,86.19
2023-01-19T20:41:54.990Z,85.78
2023-01-19T20:44:26.484Z,86.26
2023-01-19T20:46:56.217Z,85.39
2023-01-19T20:49:25.261Z,86.09
2023-01-19T20:51:54.221Z,85.66
2023-01-19T20:54:26.351Z,86.03
2023-01-19T20:56:56.286Z,85.79
2023-01-19T20:59:25.147Z,85.73
2023-01-19T21:01:54.356Z,85.26
2023-01-19T21:04:23.555Z,85.73
2023-01-19T21:06:52.253Z,85.56
2023-01-19T21:09:21.822Z,86.22
2023-01-19T21:11:50.531Z,86.29
2023-01-19T21:14:20.330Z,85.40
2023-01-19T21:16:49.016Z,85.21
2023-01-19T21:19:18.216Z,84.25
2023-01-19T21:21:46.841Z,84.95
2023-01-19T21:24:15.269Z,85.08
2023-01-19T21:26:43.736Z,84.59
2023-01-19T21:29:14.096Z,85.78
2023-01-19T21:31:44.028Z,85.51
2023-01-19T21:34:12.690Z,85.09
2023-01-19T21:36:44.822Z,84.94
2023-01-19T21:39:15.352Z,85.24
2023-01-19T21:41:45.328Z,85.59
2023-01-19T21:44:14.663Z,86.23
2023-01-19T21:46:44.730Z,85.31
2023-01-19T21:49:19.288Z,85.46
2023-01-19T21:51:49.157Z,85.84
2023-01-19T21:54:18.580Z,85.93
2023-01-19T21:56:47.230Z,85.65
2023-01-19T21:59:18.018Z,85.07
2023-01-19T22:01:49.211Z,85.17
2023-01-19T22:04:17.855Z,84.26
2023-01-19T22:06:46.402Z,84.83
2023-01-19T22:09:14.882Z,84.66
2023-01-19T22:11:43.642Z,84.53
2023-01-19T22:14:12.083Z,85.16
2023-01-19T22:16:40.772Z,84.45
2023-01-19T22:19:14.443Z,85.10
2023-01-19T22:21:43.022Z,85.64
2023-01-19T22:24:12.876Z,85.68
2023-01-19T22:26:41.359Z,85.41
2023-01-19T22:29:11.170Z,85.12
2023-01-19T22:31:40.862Z,84.98
2023-01-19T22:34:11.853Z,84.46
2023-01-19T22:36:40.700Z,84.15
2023-01-19T22:39:11.517Z,84.33
2023-01-19T22:41:42.379Z,84.36
2023-01-19T22:44:14.034Z,84.27
2023-01-19T22:46:42.772Z,83.82
2023-01-19T22:49:18.109Z,84.30
2023-01-19T22:51:47.216Z,84.03
2023-01-19T22:54:15.900Z,83.95
2023-01-19T22:56:45.798Z,83.60
2023-01-19T22:59:14.383Z,83.80
2023-01-19T23:01:44.799Z,85.02
2023-01-19T23:04:16.618Z,85.03
2023-01-19T23:06:46.979Z,85.29
2023-01-19T23:09:16.299Z,84.31
2023-01-19T23:11:50.837Z,84.63
2023-01-19T23:14:21.853Z,84.36
2023-01-19T23:16:50.868Z,84.30
2023-01-19T23:19:21.008Z,84.92
2023-01-19T23:21:52.776Z,83.71
2023-01-19T23:24:21.283Z,83.61
2023-01-19T23:26:51.131Z,83.93
2023-01-19T23:29:19.802Z,83.16
2023-01-19T23:31:50.438Z,84.46
2023-01-19T23:34:20.636Z,84.21
2023-01-19T23:36:49.064Z,83.34
2023-01-19T23:39:21.225Z,83.94
2023-01-19T23:41:50.085Z,83.52
2023-01-19T23:44:19.174Z,83.20
2023-01-19T23:46:48.228Z,83.71
2023-01-19T23:49:17.098Z,83.78
2023-01-19T23:51:46.925Z,83.82
2023-01-19T23:54:15.362Z,83.35
2023-01-19T23:56:44.123Z,82.90
2023-01-19T23:59:14.787Z,83.40
